Time;durP1;ratioP1;P1;durP2;ratioP2;P2;SDS_P1;SDS_P2;PMS_P1;PMS_P2;Temp;Humidity;BMP_temperature;BMP_pressure;BME280_temperature;BME280_humidity;BME280_pressure;Samples;Min_cycle;Max_cycle;Signal;HPM_P1;HPM_P2
2022/04/22 00:00:48;;;;;;;;;;;17.10;99.90;;;;;;5096287;28;20358;-36
2022/04/22 00:03:14;;;;;;;;;;;17.20;99.90;;;;;;5096628;28;19919;-36
2022/04/22 00:05:39;;;;;;;;;;;17.10;99.90;;;;;;5096283;28;19908;-37
2022/04/22 00:08:05;;;;;;;;;;;17.10;99.90;;;;;;5096533;28;19987;-36
2022/04/22 00:10:30;;;;;;;;;;;17.10;99.90;;;;;;5096449;28;19908;-36
2022/04/22 00:12:56;;;;;;;;;;;17.10;99.90;;;;;;5096107;28;20328;-36
2022/04/22 00:15:22;;;;;;;;;;;17.20;99.90;;;;;;5096372;28;19924;-36
2022/04/22 00:17:48;;;;;;;;;;;17.10;99.90;;;;;;5096260;28;19912;-36
2022/04/22 00:20:14;;;;;;;;;;;17.10;99.90;;;;;;5096199;28;19970;-36
2022/04/22 00:22:40;;;;;;;;;;;17.10;99.90;;;;;;5095976;28;20259;-37
2022/04/22 00:25:10;;;;;;;;;;;17.10;99.90;;;;;;5096206;28;19908;-36
2022/04/22 00:27:36;;;;;;;;;;;17.10;99.90;;;;;;5095980;28;19915;-36
2022/04/22 00:30:03;;;;;;;;;;;17.10;99.90;;;;;;5096076;28;20243;-35
2022/04/22 00:32:30;;;;;;;;;;;17.10;99.90;;;;;;5111353;28;20012;-36
2022/04/22 00:34:55;;;;;;;;;;;17.10;99.90;;;;;;5115955;28;20273;-36
2022/04/22 00:37:21;;;;;;;;;;;17.10;99.90;;;;;;5116079;28;19907;-36
2022/04/22 00:39:46;;;;;;;;;;;17.10;99.90;;;;;;5115973;28;19952;-36
2022/04/22 00:42:12;;;;;;;;;;;17.00;99.90;;;;;;5116279;28;19994;-36
2022/04/22 00:44:38;;;;;;;;;;;17.00;99.90;;;;;;5116245;28;19911;-36
2022/04/22 00:47:04;;;;;;;;;;;17.00;99.90;;;;;;5115804;28;20006;-36
2022/04/22 00:49:29;;;;;;;;;;;17.10;99.90;;;;;;5116038;28;19957;-36
2022/04/22 00:51:55;;;;;;;;;;;17.00;99.90;;;;;;5115936;28;19907;-36
2022/04/22 00:54:21;;;;;;;;;;;17.10;99.90;;;;;;5115736;28;19915;-36
2022/04/22 00:56:46;;;;;;;;;;;17.10;99.90;;;;;;5115890;28;20014;-36
2022/04/22 00:59:12;;;;;;;;;;;17.00;99.90;;;;;;5115902;28;20251;-36
2022/04/22 01:01:38;;;;;;;;;;;17.00;99.90;;;;;;5115582;28;19925;-36
2022/04/22 01:09:48;;;;;;;;;;;17.00;99.90;;;;;;5115513;28;19915;-36
2022/04/22 01:12:14;;;;;;;;;;;17.00;99.90;;;;;;5116107;28;19915;-36
2022/04/22 01:14:41;;;;;;;;;;;17.10;99.90;;;;;;5115041;28;20368;-36
2022/04/22 01:17:07;;;;;;;;;;;17.10;99.90;;;;;;5115476;28;19915;-35
2022/04/22 01:19:33;;;;;;;;;;;17.00;99.90;;;;;;5115561;28;19907;-36
2022/04/22 01:21:58;;;;;;;;;;;17.00;99.90;;;;;;5115771;28;19908;-36
2022/04/22 01:24:24;;;;;;;;;;;17.10;99.90;;;;;;5115425;28;20274;-36
2022/04/22 01:26:53;;;;;;;;;;;17.10;99.90;;;;;;5115081;28;19935;-36
2022/04/22 01:29:18;;;;;;;;;;;17.10;99.90;;;;;;5115326;28;19908;-36
2022/04/22 01:31:44;;;;;;;;;;;17.10;99.90;;;;;;5115032;28;19919;-37
2022/04/22 01:34:10;;;;;;;;;;;17.10;99.90;;;;;;5115602;28;19914;-36
2022/04/22 01:36:35;;;;;;;;;;;17.10;99.90;;;;;;5115362;28;19923;-36
2022/04/22 01:39:01;;;;;;;;;;;17.10;99.90;;;;;;5115152;28;19908;-36
2022/04/22 01:41:27;;;;;;;;;;;17.10;99.90;;;;;;5115095;28;19908;-36
2022/04/22 01:43:53;;;;;;;;;;;17.10;99.90;;;;;;5114741;28;19930;-36
2022/04/22 01:46:18;;;;;;;;;;;17.20;99.90;;;;;;5115071;28;20342;-36
2022/04/22 01:48:44;;;;;;;;;;;17.20;99.90;;;;;;5114926;28;19915;-36
2022/04/22 01:51:09;;;;;;;;;;;17.20;99.90;;;;;;5114966;28;19911;-37
2022/04/22 01:53:35;;;;;;;;;;;17.10;99.90;;;;;;5114892;28;20252;-36
2022/04/22 01:56:00;;;;;;;;;;;17.10;99.90;;;;;;5114790;28;20346;-36
2022/04/22 01:58:25;;;;;;;;;;;17.10;99.90;;;;;;5114777;28;20308;-36
2022/04/22 02:00:51;;;;;;;;;;;17.10;99.90;;;;;;5096281;28;19915;-36
2022/04/22 02:03:16;;;;;;;;;;;17.10;99.90;;;;;;5114690;28;19907;-36
2022/04/22 02:05:42;;;;;;;;;;;17.10;99.90;;;;;;5114791;28;19930;-36
2022/04/22 02:08:08;;;;;;;;;;;17.10;99.90;;;;;;5114421;28;20374;-36
2022/04/22 02:10:34;;;;;;;;;;;17.00;99.90;;;;;;5114352;28;19992;-36
2022/04/22 02:13:00;;;;;;;;;;;17.00;99.90;;;;;;5114613;28;19911;-36
2022/04/22 02:15:26;;;;;;;;;;;17.00;99.90;;;;;;5096319;28;19916;-36
2022/04/22 02:17:52;;;;;;;;;;;17.00;99.90;;;;;;5114371;28;20357;-36
2022/04/22 02:20:18;;;;;;;;;;;17.00;99.90;;;;;;5096476;28;19981;-36
2022/04/22 02:22:43;;;;;;;;;;;17.00;99.90;;;;;;5114581;28;19969;-36
2022/04/22 02:25:09;;;;;;;;;;;17.00;99.90;;;;;;5114581;28;19908;-36
2022/04/22 02:30:19;;;;;;;;;;;17.00;99.90;;;;;;5118681;28;19961;-36
2022/04/22 02:32:46;;;;;;;;;;;17.00;99.90;;;;;;5118751;28;19920;-36
2022/04/22 02:35:13;;;;;;;;;;;17.00;99.90;;;;;;5118613;28;19941;-36
2022/04/22 02:37:38;;;;;;;;;;;17.00;99.90;;;;;;5118728;28;19965;-36
2022/04/22 02:40:04;;;;;;;;;;;17.10;99.90;;;;;;5118346;28;19907;-36
2022/04/22 02:45:29;;;;;;;;;;;17.10;99.90;;;;;;5118647;28;19999;-36
2022/04/22 02:47:56;;;;;;;;;;;17.00;99.90;;;;;;5100188;28;19908;-36
2022/04/22 02:50:22;;;;;;;;;;;17.10;99.90;;;;;;5118368;28;19994;-36
2022/04/22 02:52:47;;;;;;;;;;;17.10;99.90;;;;;;5118191;28;20015;-36
2022/04/22 02:55:13;;;;;;;;;;;17.10;99.90;;;;;;5117922;28;19916;-37
2022/04/22 02:57:38;;;;;;;;;;;17.10;99.90;;;;;;5118102;28;20308;-35
2022/04/22 03:00:04;;;;;;;;;;;17.00;99.90;;;;;;5117908;28;19930;-35
2022/04/22 03:02:29;;;;;;;;;;;17.10;99.90;;;;;;5117847;28;19911;-36
2022/04/22 03:04:55;;;;;;;;;;;17.10;99.90;;;;;;5117786;28;19951;-36
2022/04/22 03:07:20;;;;;;;;;;;17.00;99.90;;;;;;5118104;28;19916;-37
2022/04/22 03:09:46;;;;;;;;;;;17.00;99.90;;;;;;5117946;28;19908;-37
2022/04/22 03:12:13;;;;;;;;;;;17.10;99.90;;;;;;5117634;28;19912;-37
2022/04/22 03:14:39;;;;;;;;;;;17.10;99.90;;;;;;5117822;28;19908;-37
2022/04/22 03:17:05;;;;;;;;;;;17.10;99.90;;;;;;5117743;28;19914;-37
2022/04/22 03:19:31;;;;;;;;;;;17.10;99.90;;;;;;5117873;28;19985;-37
2022/04/22 03:21:57;;;;;;;;;;;17.10;99.90;;;;;;5117770;28;19912;-37
2022/04/22 03:24:23;;;;;;;;;;;17.10;99.90;;;;;;5117746;28;20324;-37
2022/04/22 03:26:48;;;;;;;;;;;17.10;99.90;;;;;;5117718;28;20266;-37
2022/04/22 03:29:14;;;;;;;;;;;17.00;99.90;;;;;;5117461;28;19995;-37
2022/04/22 03:31:40;;;;;;;;;;;17.00;99.90;;;;;;5117426;28;19926;-37
2022/04/22 03:34:05;;;;;;;;;;;17.10;99.90;;;;;;5117215;28;19908;-37
2022/04/22 03:36:31;;;;;;;;;;;17.10;99.90;;;;;;5117329;28;19916;-37
2022/04/22 03:38:56;;;;;;;;;;;17.10;99.90;;;;;;5116751;27;19907;-37
2022/04/22 03:41:22;;;;;;;;;;;17.10;99.90;;;;;;5117178;28;20006;-37
2022/04/22 03:43:47;;;;;;;;;;;17.10;99.90;;;;;;5117346;28;19934;-37
2022/04/22 03:46:13;;;;;;;;;;;17.10;99.90;;;;;;5117276;28;19955;-37
2022/04/22 03:48:39;;;;;;;;;;;17.10;99.90;;;;;;5117241;28;19994;-37
2022/04/22 03:51:04;;;;;;;;;;;17.10;99.90;;;;;;5117153;28;19996;-37
2022/04/22 03:53:31;;;;;;;;;;;17.10;99.90;;;;;;5117137;28;19966;-37
2022/04/22 03:58:10;;;;;;;;;;;17.10;99.90;;;;;;5117032;28;19919;-37
2022/04/22 03:58:41;;;;;;;;;;;17.00;99.90;;;;;;5117090;28;20277;-37
2022/04/22 04:01:07;;;;;;;;;;;17.00;99.90;;;;;;5116970;28;20010;-37
2022/04/22 04:03:32;;;;;;;;;;;17.00;99.90;;;;;;5116957;28;19908;-37
2022/04/22 04:05:58;;;;;;;;;;;17.10;99.90;;;;;;5116629;28;19991;-37
2022/04/22 04:08:24;;;;;;;;;;;17.10;99.90;;;;;;5116842;28;19955;-37
2022/04/22 04:16:18;;;;;;;;;;;17.10;99.90;;;;;;5116433;28;20385;-37
2022/04/22 04:18:43;;;;;;;;;;;17.10;99.90;;;;;;5116707;28;19908;-37
2022/04/22 04:23:54;;;;;;;;;;;17.10;99.90;;;;;;5116643;28;19915;-37
2022/04/22 04:26:30;;;;;;;;;;;17.00;99.90;;;;;;5116591;28;19913;-37
2022/04/22 04:28:55;;;;;;;;;;;17.10;99.90;;;;;;5116594;28;19907;-37
2022/04/22 04:31:21;;;;;;;;;;;17.10;99.90;;;;;;5116294;28;19926;-37
2022/04/22 04:33:49;;;;;;;;;;;17.10;99.90;;;;;;5115908;28;19961;-37
2022/04/22 04:36:14;;;;;;;;;;;17.10;99.90;;;;;;5116236;28;19920;-37
2022/04/22 04:38:40;;;;;;;;;;;17.10;99.90;;;;;;5116557;28;20403;-37
2022/04/22 04:41:08;;;;;;;;;;;17.10;99.90;;;;;;5116145;28;19909;-37
2022/04/22 04:43:34;;;;;;;;;;;17.10;99.90;;;;;;5116161;28;19907;-37
2022/04/22 04:45:59;;;;;;;;;;;17.10;99.90;;;;;;5116018;28;19908;-37
2022/04/22 04:48:25;;;;;;;;;;;17.10;99.90;;;;;;5097568;28;19914;-37
2022/04/22 04:50:51;;;;;;;;;;;17.10;99.90;;;;;;5115345;28;20397;-37
2022/04/22 04:53:17;;;;;;;;;;;17.10;99.90;;;;;;5115530;28;20281;-37
2022/04/22 04:55:43;;;;;;;;;;;17.10;99.90;;;;;;5115615;28;19916;-37
2022/04/22 04:58:09;;;;;;;;;;;17.10;99.90;;;;;;5115330;28;19915;-37
2022/04/22 05:00:34;;;;;;;;;;;17.10;99.90;;;;;;5115405;28;20312;-37
2022/04/22 05:03:00;;;;;;;;;;;17.10;99.90;;;;;;5115715;28;19999;-37
2022/04/22 05:05:26;;;;;;;;;;;17.10;99.90;;;;;;5115213;28;19962;-37
2022/04/22 05:07:55;;;;;;;;;;;17.00;99.90;;;;;;5115584;28;19908;-37
2022/04/22 05:10:20;;;;;;;;;;;17.10;99.90;;;;;;5115463;28;20354;-37
2022/04/22 05:12:46;;;;;;;;;;;17.10;99.90;;;;;;5115504;28;19915;-38
2022/04/22 05:15:12;;;;;;;;;;;17.10;99.90;;;;;;5115414;28;19923;-37
2022/04/22 05:17:39;;;;;;;;;;;17.10;99.90;;;;;;5114999;28;20236;-37
2022/04/22 05:20:05;;;;;;;;;;;17.10;99.90;;;;;;5114916;28;19953;-37
2022/04/22 05:22:31;;;;;;;;;;;17.20;99.90;;;;;;5114940;28;20011;-37
2022/04/22 05:24:56;;;;;;;;;;;17.10;99.90;;;;;;5115157;28;19915;-37
2022/04/22 05:27:22;;;;;;;;;;;17.20;99.90;;;;;;5115057;28;19907;-37
2022/04/22 05:32:37;;;;;;;;;;;17.10;99.90;;;;;;5114526;28;19930;-37
2022/04/22 05:35:04;;;;;;;;;;;17.20;99.90;;;;;;5114960;28;20346;-36
2022/04/22 05:37:46;;;;;;;;;;;17.20;99.90;;;;;;5096090;28;20225;-36
2022/04/22 05:40:12;;;;;;;;;;;17.20;99.90;;;;;;5115164;28;19923;-36
2022/04/22 05:42:41;;;;;;;;;;;17.20;99.90;;;;;;5096414;28;19958;-36
2022/04/22 05:45:07;;;;;;;;;;;17.20;99.90;;;;;;5114483;28;19986;-36
2022/04/22 05:47:33;;;;;;;;;;;17.20;99.90;;;;;;5096177;28;20348;-36
2022/04/22 05:49:59;;;;;;;;;;;17.20;99.90;;;;;;5114873;28;19947;-36
2022/04/22 05:52:24;;;;;;;;;;;17.20;99.90;;;;;;5114814;28;20002;-36
2022/04/22 05:54:50;;;;;;;;;;;17.20;99.90;;;;;;5114111;28;20330;-36
2022/04/22 05:57:15;;;;;;;;;;;17.20;99.90;;;;;;5114087;28;19908;-36
2022/04/22 05:59:41;;;;;;;;;;;17.20;99.90;;;;;;5114448;28;20307;-36
2022/04/22 06:02:07;;;;;;;;;;;17.20;99.90;;;;;;5114680;28;19915;-36
2022/04/22 06:04:33;;;;;;;;;;;17.20;99.90;;;;;;5114713;28;19908;-36
2022/04/22 06:06:58;;;;;;;;;;;17.10;99.90;;;;;;5113932;28;19939;-36
2022/04/22 06:12:08;;;;;;;;;;;17.10;99.90;;;;;;5114454;28;20250;-36
2022/04/22 06:14:35;;;;;;;;;;;17.20;99.90;;;;;;5114251;28;19908;-36
2022/04/22 06:17:00;;;;;;;;;;;17.20;99.90;;;;;;5114150;28;20011;-36
2022/04/22 06:19:26;;;;;;;;;;;17.20;99.90;;;;;;5095914;28;19993;-37
2022/04/22 06:21:51;;;;;;;;;;;17.20;99.90;;;;;;5113885;28;19933;-37
2022/04/22 06:24:16;;;;;;;;;;;17.20;99.90;;;;;;5113833;28;20304;-40
2022/04/22 06:26:42;;;;;;;;;;;17.20;99.90;;;;;;5113851;28;19923;-37
2022/04/22 06:29:08;;;;;;;;;;;17.20;99.90;;;;;;5113973;28;20014;-37
2022/04/22 06:31:35;;;;;;;;;;;17.20;99.90;;;;;;5095714;28;19980;-37
2022/04/22 06:34:01;;;;;;;;;;;17.20;99.90;;;;;;5114026;28;19912;-37
2022/04/22 06:36:28;;;;;;;;;;;17.20;99.90;;;;;;5113895;28;20255;-37
2022/04/22 06:38:58;;;;;;;;;;;17.20;99.90;;;;;;5095592;28;20383;-37
2022/04/22 06:46:53;;;;;;;;;;;17.20;99.90;;;;;;5113912;28;19930;-38
2022/04/22 06:49:18;;;;;;;;;;;17.20;99.90;;;;;;5113938;28;20350;-38
2022/04/22 06:51:44;;;;;;;;;;;17.20;99.90;;;;;;5114145;28;19980;-37
2022/04/22 06:54:09;;;;;;;;;;;17.20;99.90;;;;;;5113899;28;19907;-37
2022/04/22 06:56:36;;;;;;;;;;;17.20;99.90;;;;;;5113765;28;19916;-37
2022/04/22 06:59:02;;;;;;;;;;;17.20;99.90;;;;;;5113664;28;19982;-37
2022/04/22 07:01:27;;;;;;;;;;;17.20;99.90;;;;;;5113630;28;20049;-36
2022/04/22 07:03:53;;;;;;;;;;;17.20;99.90;;;;;;5113713;28;20254;-36
2022/04/22 07:06:19;;;;;;;;;;;17.20;99.90;;;;;;5113568;28;20430;-36
2022/04/22 07:08:46;;;;;;;;;;;17.20;99.90;;;;;;5113387;28;19908;-36
2022/04/22 07:11:15;;;;;;;;;;;17.20;99.90;;;;;;5113590;28;19912;-36
2022/04/22 07:13:43;;;;;;;;;;;17.20;99.90;;;;;;5116564;28;19915;-36
2022/04/22 07:16:10;;;;;;;;;;;17.30;99.90;;;;;;5117119;28;19923;-37
2022/04/22 07:18:36;;;;;;;;;;;17.30;99.90;;;;;;5117162;28;19908;-37
2022/04/22 07:21:01;;;;;;;;;;;17.20;99.90;;;;;;5117419;28;19927;-37
2022/04/22 07:23:27;;;;;;;;;;;17.20;99.90;;;;;;5117381;28;20381;-37
2022/04/22 07:25:52;;;;;;;;;;;17.20;99.90;;;;;;5117066;28;19915;-37
2022/04/22 07:28:18;;;;;;;;;;;17.20;99.90;;;;;;5117032;28;19911;-41
2022/04/22 07:30:50;;;;;;;;;;;17.20;99.90;;;;;;5116959;28;19915;-37
2022/04/22 07:33:15;;;;;;;;;;;17.30;99.90;;;;;;5117114;28;19912;-37
2022/04/22 07:35:41;;;;;;;;;;;17.20;99.90;;;;;;5117203;28;19923;-37
2022/04/22 07:38:10;;;;;;;;;;;17.20;99.90;;;;;;5116898;28;20290;-37
2022/04/22 07:40:37;;;;;;;;;;;17.20;99.90;;;;;;5116999;28;20460;-37
2022/04/22 07:48:33;;;;;;;;;;;17.30;99.90;;;;;;5116766;28;20045;-37
2022/04/22 07:50:58;;;;;;;;;;;17.20;99.90;;;;;;5116655;28;19915;-37
2022/04/22 07:53:24;;;;;;;;;;;17.30;99.90;;;;;;5116859;28;20267;-37
2022/04/22 07:55:49;;;;;;;;;;;17.20;99.90;;;;;;5116864;28;20006;-37
2022/04/22 07:58:16;;;;;;;;;;;17.30;99.90;;;;;;5116810;28;19987;-37
2022/04/22 08:00:44;;;;;;;;;;;17.30;99.90;;;;;;5116292;28;20401;-37
2022/04/22 08:03:10;;;;;;;;;;;17.20;99.90;;;;;;5116987;28;19911;-37
2022/04/22 08:05:37;;;;;;;;;;;17.30;99.90;;;;;;5116708;28;19908;-37
2022/04/22 08:08:03;;;;;;;;;;;17.30;99.90;;;;;;5116614;28;20304;-37
2022/04/22 08:10:29;;;;;;;;;;;17.30;99.90;;;;;;5116363;28;20346;-37
2022/04/22 08:12:54;;;;;;;;;;;17.30;99.90;;;;;;5098274;28;19908;-37
2022/04/22 08:15:21;;;;;;;;;;;17.30;99.90;;;;;;5116322;28;19923;-37
2022/04/22 08:17:47;;;;;;;;;;;17.30;99.90;;;;;;5116296;28;19908;-37
2022/04/22 08:20:13;;;;;;;;;;;17.30;99.90;;;;;;5116486;28;19919;-37
2022/04/22 08:22:38;;;;;;;;;;;17.30;99.90;;;;;;5116050;28;19950;-37
2022/04/22 08:25:04;;;;;;;;;;;17.30;99.90;;;;;;5115016;28;19908;-37
2022/04/22 08:27:30;;;;;;;;;;;17.30;99.90;;;;;;5116210;28;20045;-37
2022/04/22 08:29:56;;;;;;;;;;;17.30;99.90;;;;;;5116174;28;19908;-37
2022/04/22 08:32:22;;;;;;;;;;;17.40;99.90;;;;;;5115638;28;19972;-37
2022/04/22 08:34:47;;;;;;;;;;;17.40;99.90;;;;;;5115968;28;19945;-36
2022/04/22 08:37:13;;;;;;;;;;;17.40;99.90;;;;;;5115846;28;19998;-37
2022/04/22 08:39:39;;;;;;;;;;;17.40;99.90;;;;;;5097720;28;19978;-36
2022/04/22 08:42:05;;;;;;;;;;;17.40;99.90;;;;;;5116026;28;19907;-36
2022/04/22 08:44:31;;;;;;;;;;;17.40;99.90;;;;;;5115815;28;20320;-36
2022/04/22 08:49:59;;;;;;;;;;;17.40;99.90;;;;;;5115790;28;19914;-36
2022/04/22 08:52:32;;;;;;;;;;;17.40;99.90;;;;;;5115334;28;19908;-37
2022/04/22 08:54:58;;;;;;;;;;;17.40;99.90;;;;;;5115508;28;20011;-37
2022/04/22 08:57:23;;;;;;;;;;;17.40;99.90;;;;;;5115502;28;19998;-37
2022/04/22 08:59:49;;;;;;;;;;;17.40;99.90;;;;;;5115087;28;19953;-36
2022/04/22 09:02:15;;;;;;;;;;;17.40;99.90;;;;;;5115484;28;19912;-37
2022/04/22 09:04:41;;;;;;;;;;;17.40;99.90;;;;;;5115377;28;19907;-36
2022/04/22 09:07:08;;;;;;;;;;;17.40;99.90;;;;;;5115526;28;19994;-36
2022/04/22 09:09:33;;;;;;;;;;;17.40;99.90;;;;;;5115285;28;19908;-37
2022/04/22 09:12:08;;;;;;;;;;;17.30;99.90;;;;;;5115080;28;19914;-37
2022/04/22 09:14:33;;;;;;;;;;;17.30;99.90;;;;;;5115286;28;19930;-36
2022/04/22 09:16:59;;;;;;;;;;;17.30;99.90;;;;;;5114689;28;20358;-36
2022/04/22 09:19:25;;;;;;;;;;;17.40;99.90;;;;;;5114727;28;20415;-36
2022/04/22 09:21:57;;;;;;;;;;;17.40;99.90;;;;;;5115104;28;20373;-37
2022/04/22 09:24:22;;;;;;;;;;;17.40;99.90;;;;;;5114682;28;19914;-37
2022/04/22 09:27:02;;;;;;;;;;;17.40;99.90;;;;;;5114549;28;19912;-37
2022/04/22 09:29:27;;;;;;;;;;;17.40;99.90;;;;;;5114815;28;20046;-37
2022/04/22 09:31:53;;;;;;;;;;;17.30;99.90;;;;;;5114656;28;20367;-37
2022/04/22 09:34:36;;;;;;;;;;;17.40;99.90;;;;;;5114800;28;20005;-37
2022/04/22 09:42:50;;;;;;;;;;;17.40;99.90;;;;;;5114585;28;19937;-38
2022/04/22 09:45:16;;;;;;;;;;;17.50;99.90;;;;;;5114690;28;19908;-37
2022/04/22 09:47:42;;;;;;;;;;;17.50;99.90;;;;;;5114426;28;20369;-37
2022/04/22 09:50:10;;;;;;;;;;;17.50;99.90;;;;;;5115116;28;19911;-37
2022/04/22 09:52:36;;;;;;;;;;;17.50;99.90;;;;;;5114507;28;20020;-37
2022/04/22 09:55:04;;;;;;;;;;;17.50;99.90;;;;;;5114225;28;19978;-38
2022/04/22 09:57:48;;;;;;;;;;;17.50;99.90;;;;;;5114292;28;19944;-38
2022/04/22 10:00:15;;;;;;;;;;;17.60;99.90;;;;;;5114528;28;19915;-37
2022/04/22 10:02:41;;;;;;;;;;;17.50;99.90;;;;;;5114845;28;19908;-37
2022/04/22 10:05:07;;;;;;;;;;;17.50;99.90;;;;;;5114108;28;20350;-37
2022/04/22 10:07:32;;;;;;;;;;;17.60;99.90;;;;;;5114672;28;19914;-37
2022/04/22 10:10:00;;;;;;;;;;;17.60;99.90;;;;;;5113651;28;19919;-37
2022/04/22 10:12:27;;;;;;;;;;;17.60;99.90;;;;;;5114362;28;20364;-37
2022/04/22 10:14:55;;;;;;;;;;;17.60;99.90;;;;;;5114252;28;19914;-37
2022/04/22 10:17:22;;;;;;;;;;;17.60;99.90;;;;;;5114286;28;19908;-37
2022/04/22 10:19:48;;;;;;;;;;;17.60;99.90;;;;;;5114003;28;20002;-37
2022/04/22 10:22:15;;;;;;;;;;;17.60;99.90;;;;;;5114112;28;19908;-37
2022/04/22 10:24:40;;;;;;;;;;;17.60;99.90;;;;;;5113875;28;19908;-37
2022/04/22 10:27:07;;;;;;;;;;;17.60;99.90;;;;;;5113484;28;19930;-36
2022/04/22 10:29:34;;;;;;;;;;;17.60;99.90;;;;;;5113804;28;20208;-36
2022/04/22 10:31:59;;;;;;;;;;;17.60;99.90;;;;;;5113575;28;20274;-36
2022/04/22 10:34:41;;;;;;;;;;;17.60;99.90;;;;;;5113889;28;19908;-36
2022/04/22 10:37:23;;;;;;;;;;;17.60;99.90;;;;;;5113917;28;19915;-37
2022/04/22 10:39:50;;;;;;;;;;;17.60;99.90;;;;;;5113958;28;19908;-36
2022/04/22 10:42:16;;;;;;;;;;;17.60;99.90;;;;;;5113628;28;19914;-36
2022/04/22 10:47:39;;;;;;;;;;;17.60;99.90;;;;;;5114414;28;19934;-36
2022/04/22 10:50:22;;;;;;;;;;;17.60;99.90;;;;;;5118007;28;19943;-36
2022/04/22 10:53:03;;;;;;;;;;;17.60;99.90;;;;;;5117632;28;19915;-36
2022/04/22 10:55:49;;;;;;;;;;;17.50;99.90;;;;;;5117480;28;19985;-36
2022/04/22 10:58:17;;;;;;;;;;;17.50;99.90;;;;;;5116933;28;19908;-36
2022/04/22 11:00:46;;;;;;;;;;;17.50;99.90;;;;;;5117802;28;19914;-36
2022/04/22 11:03:13;;;;;;;;;;;17.50;99.90;;;;;;5117964;28;19908;-36
2022/04/22 11:05:48;;;;;;;;;;;17.50;99.90;;;;;;5117560;28;19998;-36
2022/04/22 11:08:32;;;;;;;;;;;17.40;99.90;;;;;;5117311;28;19915;-36
2022/04/22 11:11:00;;;;;;;;;;;17.40;99.90;;;;;;5117640;28;20326;-38
2022/04/22 11:13:33;;;;;;;;;;;17.40;99.90;;;;;;5117482;28;19908;-38
2022/04/22 11:16:01;;;;;;;;;;;17.40;99.90;;;;;;5117340;28;19924;-38
2022/04/22 11:18:27;;;;;;;;;;;17.40;99.90;;;;;;5117651;28;19912;-38
2022/04/22 11:20:58;;;;;;;;;;;17.50;99.90;;;;;;5117177;28;19930;-37
2022/04/22 11:23:33;;;;;;;;;;;17.50;99.90;;;;;;5117394;28;19933;-39
2022/04/22 11:25:59;;;;;;;;;;;17.40;99.90;;;;;;5117117;28;19912;-37
2022/04/22 11:28:25;;;;;;;;;;;17.40;99.90;;;;;;5117452;28;20278;-38
2022/04/22 11:30:52;;;;;;;;;;;17.50;99.90;;;;;;5117202;28;20315;-38
2022/04/22 11:33:22;;;;;;;;;;;17.40;99.90;;;;;;5117116;28;19935;-37
2022/04/22 11:35:57;;;;;;;;;;;17.50;99.90;;;;;;5116933;28;20358;-37
2022/04/22 11:38:23;;;;;;;;;;;17.50;99.90;;;;;;5116993;28;19908;-38
2022/04/22 11:40:51;;;;;;;;;;;17.50;99.90;;;;;;5117195;28;19919;-37
2022/04/22 11:43:21;;;;;;;;;;;17.60;99.90;;;;;;5116705;28;19960;-38
2022/04/22 11:45:47;;;;;;;;;;;17.60;99.90;;;;;;5099128;28;19908;-36
2022/04/22 11:48:13;;;;;;;;;;;17.60;99.90;;;;;;5117085;28;19907;-36
2022/04/22 11:50:40;;;;;;;;;;;17.70;99.90;;;;;;5116955;28;19914;-36
2022/04/22 11:53:26;;;;;;;;;;;17.70;99.90;;;;;;5117341;28;19908;-37
2022/04/22 11:55:52;;;;;;;;;;;17.70;99.90;;;;;;5116517;28;19920;-36
2022/04/22 11:58:23;;;;;;;;;;;17.70;99.90;;;;;;5116244;28;19993;-36
2022/04/22 12:06:18;;;;;;;;;;;17.60;99.90;;;;;;5116404;28;20273;-36
2022/04/22 12:08:53;;;;;;;;;;;17.60;99.90;;;;;;5116817;28;19998;-37
2022/04/22 12:11:19;;;;;;;;;;;17.60;99.90;;;;;;5116224;28;19912;-37
2022/04/22 12:13:46;;;;;;;;;;;17.50;99.90;;;;;;5116286;28;20113;-37
2022/04/22 12:16:11;;;;;;;;;;;17.60;99.90;;;;;;5115829;28;19920;-37
2022/04/22 12:18:37;;;;;;;;;;;17.50;99.90;;;;;;5116043;28;19915;-37
2022/04/22 12:21:06;;;;;;;;;;;17.50;99.90;;;;;;5116057;28;19908;-37
2022/04/22 12:23:33;;;;;;;;;;;17.50;99.90;;;;;;5116190;28;19912;-37
2022/04/22 12:26:00;;;;;;;;;;;17.50;99.90;;;;;;5116137;28;19919;-37
2022/04/22 12:28:26;;;;;;;;;;;17.50;99.90;;;;;;5115916;28;20240;-37
2022/04/22 12:30:51;;;;;;;;;;;17.40;99.90;;;;;;5115580;28;20380;-37
2022/04/22 12:33:21;;;;;;;;;;;17.40;99.90;;;;;;5116087;28;19915;-38
2022/04/22 12:35:49;;;;;;;;;;;17.50;99.90;;;;;;5115708;28;20002;-37
2022/04/22 12:38:15;;;;;;;;;;;17.40;99.90;;;;;;5115510;28;19908;-37
2022/04/22 12:40:45;;;;;;;;;;;17.50;99.90;;;;;;5115823;28;19908;-36
2022/04/22 12:43:27;;;;;;;;;;;17.40;99.90;;;;;;5115355;28;19908;-36
2022/04/22 12:52:10;;;;;;;;;;;17.50;99.90;;;;;;5115731;28;19930;-37
2022/04/22 12:54:37;;;;;;;;;;;17.50;99.90;;;;;;5115343;28;19915;-37
2022/04/22 12:57:05;;;;;;;;;;;17.50;99.90;;;;;;5115251;28;19959;-37
2022/04/22 12:59:40;;;;;;;;;;;17.50;99.90;;;;;;5115241;28;19908;-37
2022/04/22 13:02:07;;;;;;;;;;;17.50;99.90;;;;;;5115432;28;19912;-36
2022/04/22 13:04:48;;;;;;;;;;;17.50;99.90;;;;;;5115374;28;19907;-36
2022/04/22 13:07:13;;;;;;;;;;;17.50;99.90;;;;;;5115248;28;20374;-36
2022/04/22 13:09:39;;;;;;;;;;;17.50;99.90;;;;;;5114607;28;19908;-36
2022/04/22 13:12:04;;;;;;;;;;;17.60;99.90;;;;;;5114467;28;19956;-36
2022/04/22 13:14:30;;;;;;;;;;;17.60;99.90;;;;;;5115051;28;19955;-37
2022/04/22 13:16:55;;;;;;;;;;;17.60;99.90;;;;;;5114931;28;20406;-37
2022/04/22 13:19:21;;;;;;;;;;;17.60;99.90;;;;;;5115231;28;19908;-36
2022/04/22 13:21:47;;;;;;;;;;;17.50;99.90;;;;;;5115020;28;19908;-37
2022/04/22 13:24:12;;;;;;;;;;;17.60;99.90;;;;;;5114920;28;20354;-36
2022/04/22 13:26:38;;;;;;;;;;;17.50;99.90;;;;;;5114605;28;19912;-36
2022/04/22 13:29:07;;;;;;;;;;;17.40;99.90;;;;;;5114292;28;20303;-36
2022/04/22 13:31:33;;;;;;;;;;;17.50;99.90;;;;;;5114486;28;20277;-36
2022/04/22 13:34:01;;;;;;;;;;;17.60;99.90;;;;;;5114732;28;20342;-37
2022/04/22 13:36:26;;;;;;;;;;;17.50;99.90;;;;;;5096359;28;19922;-37
2022/04/22 13:38:52;;;;;;;;;;;17.50;99.90;;;;;;5114015;28;19907;-36
2022/04/22 13:41:17;;;;;;;;;;;17.60;99.90;;;;;;5114430;28;20032;-37
2022/04/22 13:43:43;;;;;;;;;;;17.60;99.90;;;;;;5114654;28;19908;-37
2022/04/22 13:54:21;;;;;;;;;;;17.60;99.90;;;;;;5114573;28;19930;-37
2022/04/22 13:56:48;;;;;;;;;;;17.60;99.90;;;;;;5114402;28;20430;-37
2022/04/22 13:59:13;;;;;;;;;;;17.60;99.90;;;;;;5114531;28;19912;-37
2022/04/22 14:01:39;;;;;;;;;;;17.60;99.90;;;;;;5114304;28;20264;-37
2022/04/22 14:04:05;;;;;;;;;;;17.50;99.90;;;;;;5113956;28;20108;-37
2022/04/22 14:06:30;;;;;;;;;;;17.50;99.90;;;;;;5114616;28;20350;-37
2022/04/22 14:08:56;;;;;;;;;;;17.50;99.90;;;;;;5113865;28;19908;-39
2022/04/22 14:11:21;;;;;;;;;;;17.50;99.90;;;;;;5113884;28;20002;-37
2022/04/22 14:13:47;;;;;;;;;;;17.50;99.90;;;;;;5114112;28;19908;-36
2022/04/22 14:16:12;;;;;;;;;;;17.50;99.90;;;;;;5114193;28;20015;-36
2022/04/22 14:18:38;;;;;;;;;;;17.60;99.90;;;;;;5096076;28;20397;-37
2022/04/22 14:21:05;;;;;;;;;;;17.50;99.90;;;;;;5113795;28;19914;-37
2022/04/22 14:23:31;;;;;;;;;;;17.50;99.90;;;;;;5114166;28;20258;-37
2022/04/22 14:25:57;;;;;;;;;;;17.50;99.90;;;;;;5113938;28;19921;-37
2022/04/22 14:28:22;;;;;;;;;;;17.50;99.90;;;;;;5113819;28;20011;-37
2022/04/22 14:30:48;;;;;;;;;;;17.50;99.90;;;;;;5113966;28;19919;-38
2022/04/22 14:33:14;;;;;;;;;;;17.50;99.90;;;;;;5114538;28;20357;-37
2022/04/22 14:35:40;;;;;;;;;;;17.50;99.90;;;;;;5113472;28;19916;-37
2022/04/22 14:38:05;;;;;;;;;;;17.50;99.90;;;;;;5113688;28;19915;-37
2022/04/22 14:40:31;;;;;;;;;;;17.50;99.90;;;;;;5113606;28;19908;-37
2022/04/22 14:42:56;;;;;;;;;;;17.50;99.90;;;;;;5113768;28;19914;-37
2022/04/22 14:45:22;;;;;;;;;;;17.50;99.90;;;;;;5113652;28;20354;-37
2022/04/22 14:47:48;;;;;;;;;;;17.50;99.90;;;;;;5113553;28;19911;-37
2022/04/22 14:50:14;;;;;;;;;;;17.50;99.90;;;;;;5113729;28;19908;-37
2022/04/22 14:52:40;;;;;;;;;;;17.60;99.90;;;;;;5113753;28;20002;-37
2022/04/22 14:55:06;;;;;;;;;;;17.60;99.90;;;;;;5113860;28;19915;-39
2022/04/22 14:57:31;;;;;;;;;;;17.70;99.90;;;;;;5113760;28;19908;-37
2022/04/22 14:59:57;;;;;;;;;;;17.60;99.90;;;;;;5113616;28;19976;-39
2022/04/22 15:02:23;;;;;;;;;;;17.60;99.90;;;;;;5113355;28;20014;-36
2022/04/22 15:04:49;;;;;;;;;;;17.60;99.90;;;;;;5113628;28;19938;-36
2022/04/22 15:07:14;;;;;;;;;;;17.60;99.90;;;;;;5113509;28;19915;-37
2022/04/22 15:09:41;;;;;;;;;;;17.60;99.90;;;;;;5095289;28;19915;-37
2022/04/22 15:12:07;;;;;;;;;;;17.60;99.90;;;;;;5113112;28;20308;-37
2022/04/22 15:14:32;;;;;;;;;;;17.60;99.90;;;;;;5095396;28;19907;-37
2022/04/22 15:16:58;;;;;;;;;;;17.60;99.90;;;;;;5113297;28;19923;-37
2022/04/22 15:24:52;;;;;;;;;;;17.60;99.90;;;;;;5113400;28;19919;-37
2022/04/22 15:27:17;;;;;;;;;;;17.60;99.90;;;;;;5113276;28;19908;-37